CA-0476 weather

Williams Lake / Lee Todd Heliport
British Columbia, Canada

Public forecast

Using degrees Celsius for public forecast. Weather courtesy of forecast.io.

METAR (pilot weather report)

Closest report is Williams Lake Airport, 5.7 nm (10.6 km) E. Retrieved 2019/08/22 17:00 UTC (31 minutes ago):

CYWL 221700Z VRB02KT 15SM BKN045 12/01 A3011 RMK SC5 SLP202 DENSITY ALT 3300FT

TAF (pilot weather forecast)

Closest forecast is Williams Lake Airport, 5.7 nm (10.6 km) E. Retrieved 2019/08/22 13:42 UTC (4 hours ago):

TAF CYWL 221238Z 2213/2301 VRB03KT P6SM FEW170 FM221500 VRB03KT P6SM SCT100 TEMPO 2215/2301 BKN080 RMK NXT FCST BY 221900Z